Time;durP1;ratioP1;P1;durP2;ratioP2;P2;SDS_P1;SDS_P2;PMS_P1;PMS_P2;Temp;Humidity;BMP_temperature;BMP_pressure;BME280_temperature;BME280_humidity;BME280_pressure;Samples;Min_cycle;Max_cycle;Signal;HPM_P1;HPM_P2
2023/08/31 00:01:45;;;;;;;11.87;5.83;;;11.80;99.90;;;;;;5120687;28;20750;-59
2023/08/31 00:04:14;;;;;;;6.83;6.10;;;11.80;99.90;;;;;;5121013;28;20512;-59
2023/08/31 00:06:41;;;;;;;6.83;5.10;;;11.80;99.90;;;;;;5120740;28;20760;-59
2023/08/31 00:09:09;;;;;;;7.70;5.37;;;11.80;99.90;;;;;;5120720;28;20934;-59
2023/08/31 00:11:38;;;;;;;8.53;5.63;;;11.80;99.90;;;;;;5121171;28;20459;-63
2023/08/31 00:14:05;;;;;;;7.80;5.73;;;11.80;99.90;;;;;;5120477;28;20541;-63
2023/08/31 00:16:33;;;;;;;6.67;5.80;;;11.80;99.90;;;;;;5120095;28;20486;-63
2023/08/31 00:19:00;;;;;;;8.37;5.80;;;11.80;99.90;;;;;;5120583;28;20459;-63
2023/08/31 00:21:28;;;;;;;7.90;6.30;;;11.80;99.90;;;;;;5120446;28;20462;-63
2023/08/31 00:23:55;;;;;;;9.07;5.27;;;11.80;99.90;;;;;;5120881;28;20495;-63
2023/08/31 00:26:22;;;;;;;9.00;5.50;;;11.90;99.90;;;;;;5120930;28;20879;-63
2023/08/31 00:28:51;;;;;;;15.10;6.53;;;11.90;99.90;;;;;;5100506;28;20491;-63
2023/08/31 00:31:18;;;;;;;8.13;5.30;;;11.80;99.90;;;;;;5099503;28;20563;-63
2023/08/31 00:33:45;;;;;;;11.30;5.70;;;11.80;99.90;;;;;;5100033;28;20456;-63
2023/08/31 00:36:13;;;;;;;8.83;6.17;;;11.80;99.90;;;;;;5089636;28;20852;-63
2023/08/31 00:38:40;;;;;;;10.90;5.97;;;11.90;99.90;;;;;;5078555;28;20453;-63
2023/08/31 00:41:07;;;;;;;9.00;5.90;;;11.90;99.90;;;;;;5079524;28;20548;-63
2023/08/31 00:43:34;;;;;;;9.70;5.40;;;11.90;99.90;;;;;;5079524;28;20893;-63
2023/08/31 00:46:04;;;;;;;10.30;5.60;;;12.00;99.90;;;;;;5079643;28;20462;-63
2023/08/31 00:48:31;;;;;;;8.27;6.03;;;12.00;99.90;;;;;;5078581;28;20561;-63
2023/08/31 00:51:00;;;;;;;7.47;5.10;;;12.00;99.90;;;;;;5079215;28;20462;-63
2023/08/31 00:53:28;;;;;;;9.13;6.33;;;12.00;99.90;;;;;;5079436;28;20465;-62
2023/08/31 00:55:55;;;;;;;6.97;5.57;;;12.00;99.90;;;;;;5079503;28;20457;-63
2023/08/31 00:58:22;;;;;;;10.63;5.70;;;12.00;99.90;;;;;;5079195;28;20457;-62
2023/08/31 01:00:59;;;;;;;7.40;5.23;;;12.00;99.90;;;;;;5078755;28;20551;-62
2023/08/31 01:03:37;;;;;;;12.80;5.60;;;12.00;99.90;;;;;;5079065;28;20453;-62
2023/08/31 01:06:11;;;;;;;10.57;6.00;;;12.00;99.90;;;;;;5079385;28;20465;-63
2023/08/31 01:08:49;;;;;;;8.43;6.30;;;12.00;99.90;;;;;;5078694;28;20834;-62
2023/08/31 01:11:23;;;;;;;11.60;6.03;;;11.90;99.90;;;;;;5079017;28;20812;-63
2023/08/31 01:14:04;;;;;;;8.47;5.83;;;11.90;99.90;;;;;;5079051;28;20829;-63
2023/08/31 01:17:11;;;;;;;10.90;5.50;;;11.90;99.90;;;;;;5078525;28;20754;-62
2023/08/31 01:19:49;;;;;;;7.80;5.53;;;12.00;99.90;;;;;;5079099;28;20489;-62
2023/08/31 01:22:29;;;;;;;8.30;5.77;;;12.00;99.90;;;;;;5078797;28;20467;-63
2023/08/31 01:25:02;;;;;;;8.87;6.47;;;12.00;99.90;;;;;;5078432;28;20448;-62
2023/08/31 01:27:31;;;;;;;10.20;6.13;;;12.00;99.90;;;;;;5078544;28;20457;-62
2023/08/31 01:29:59;;;;;;;12.23;6.47;;;12.00;99.90;;;;;;5078947;28;20926;-63
2023/08/31 01:32:26;;;;;;;10.50;6.60;;;12.00;99.90;;;;;;5079011;28;20453;-62
2023/08/31 01:34:53;;;;;;;8.00;6.60;;;12.00;99.90;;;;;;5078199;28;20457;-62
2023/08/31 01:37:30;;;;;;;6.47;5.50;;;12.00;99.90;;;;;;5077564;28;20485;-62
2023/08/31 01:40:05;;;;;;;12.40;7.00;;;12.00;99.90;;;;;;5078282;28;20552;-63
2023/08/31 01:42:33;;;;;;;12.80;7.00;;;12.00;99.90;;;;;;5077882;28;20567;-62
2023/08/31 01:45:04;;;;;;;11.50;7.00;;;12.10;99.90;;;;;;5078388;28;20556;-63
2023/08/31 01:47:31;;;;;;;8.80;6.33;;;12.00;99.90;;;;;;5078321;28;20471;-62
2023/08/31 01:49:59;;;;;;;9.77;7.03;;;12.00;99.90;;;;;;5077812;28;20583;-63
2023/08/31 01:52:26;;;;;;;12.20;6.50;;;12.00;99.90;;;;;;5078285;28;20458;-63
2023/08/31 01:54:54;;;;;;;8.93;6.33;;;12.10;99.90;;;;;;5078001;28;20497;-63
2023/08/31 01:57:23;;;;;;;7.93;6.30;;;12.10;99.90;;;;;;5078043;28;20903;-63
2023/08/31 01:59:50;;;;;;;8.80;5.70;;;12.00;99.90;;;;;;5077993;28;20453;-63
2023/08/31 02:02:17;;;;;;;8.60;5.70;;;12.00;99.90;;;;;;5078015;28;20522;-63
2023/08/31 02:04:45;;;;;;;7.50;6.33;;;12.10;99.90;;;;;;5078057;28;20483;-63
2023/08/31 02:07:12;;;;;;;7.53;5.70;;;12.00;99.90;;;;;;5077553;28;20457;-63
2023/08/31 02:09:39;;;;;;;7.70;6.33;;;12.00;99.90;;;;;;5076568;28;20489;-62
2023/08/31 02:12:06;;;;;;;10.07;7.00;;;11.90;99.90;;;;;;5077828;28;20454;-62
2023/08/31 02:14:35;;;;;;;8.27;6.10;;;11.90;99.90;;;;;;5077308;28;20506;-63
2023/08/31 02:17:02;;;;;;;9.20;6.57;;;11.80;99.90;;;;;;5077876;28;20556;-63
2023/08/31 02:19:29;;;;;;;8.73;6.93;;;11.70;99.90;;;;;;5077791;28;20460;-63
2023/08/31 02:21:56;;;;;;;9.17;6.80;;;11.70;99.90;;;;;;5077660;28;20457;-63
2023/08/31 02:24:23;;;;;;;9.20;7.47;;;11.70;99.90;;;;;;5077634;28;20941;-62
2023/08/31 02:26:51;;;;;;;9.10;6.80;;;11.60;99.90;;;;;;5077423;28;20883;-63
2023/08/31 02:29:18;;;;;;;6.80;5.83;;;11.50;99.90;;;;;;5077270;28;20551;-62
2023/08/31 02:31:46;;;;;;;9.73;6.10;;;11.50;99.90;;;;;;5077488;28;20432;-62
2023/08/31 02:34:13;;;;;;;8.73;5.70;;;11.60;99.90;;;;;;5077507;28;20547;-63
2023/08/31 02:36:41;;;;;;;10.90;5.57;;;11.60;99.90;;;;;;5076705;28;20583;-63
2023/08/31 02:39:09;;;;;;;6.70;6.00;;;11.60;99.90;;;;;;5076452;28;20460;-63
2023/08/31 02:41:36;;;;;;;6.40;5.30;;;11.50;99.90;;;;;;5077261;28;20560;-63
2023/08/31 02:44:03;;;;;;;6.30;5.70;;;11.60;99.90;;;;;;5077719;28;20464;-63
2023/08/31 02:46:30;;;;;;;7.03;5.60;;;11.60;99.90;;;;;;5076796;28;20552;-62
2023/08/31 02:48:59;;;;;;;7.03;5.27;;;11.70;99.90;;;;;;5077345;28;20479;-63
2023/08/31 02:51:26;;;;;;;6.07;4.67;;;11.60;99.90;;;;;;5076705;28;20500;-62
2023/08/31 02:53:53;;;;;;;8.33;5.30;;;11.70;99.90;;;;;;5077230;28;20467;-62
2023/08/31 02:56:21;;;;;;;8.60;5.57;;;11.80;99.90;;;;;;5077051;28;20462;-62
2023/08/31 02:58:48;;;;;;;9.20;6.40;;;11.80;99.90;;;;;;5077514;28;20742;-63
2023/08/31 03:01:15;;;;;;;7.10;5.53;;;11.80;99.90;;;;;;5074767;28;20886;-63
2023/08/31 03:03:45;;;;;;;8.10;5.30;;;11.80;99.90;;;;;;5077152;28;20461;-63
2023/08/31 03:06:15;;;;;;;11.73;5.90;;;11.80;99.90;;;;;;5077159;28;20466;-63
2023/08/31 03:08:42;;;;;;;7.30;5.70;;;11.90;99.90;;;;;;5076660;28;20902;-63
2023/08/31 03:11:09;;;;;;;9.30;7.13;;;11.90;99.90;;;;;;5075337;28;20603;-62
2023/08/31 03:13:37;;;;;;;8.13;7.33;;;11.90;99.90;;;;;;5076085;28;20489;-62
2023/08/31 03:16:04;;;;;;;9.40;7.93;;;11.90;99.90;;;;;;5076520;28;20464;-63
2023/08/31 03:18:31;;;;;;;9.07;7.77;;;11.90;99.90;;;;;;5075090;28;20436;-62
2023/08/31 03:20:58;;;;;;;11.33;7.57;;;11.90;99.90;;;;;;5078259;28;20449;-62
2023/08/31 03:23:27;;;;;;;9.77;8.77;;;11.90;99.90;;;;;;5079019;28;20461;-63
2023/08/31 03:25:54;;;;;;;11.23;8.07;;;11.90;99.90;;;;;;5079412;28;20457;-63
2023/08/31 03:28:22;;;;;;;10.30;9.30;;;12.00;99.90;;;;;;5079627;28;20461;-62
2023/08/31 03:30:56;;;;;;;10.27;9.23;;;11.90;99.90;;;;;;5078883;28;20734;-63
2023/08/31 03:33:23;;;;;;;10.13;9.13;;;11.80;99.90;;;;;;5080674;28;20457;-62
2023/08/31 03:35:50;;;;;;;8.73;7.83;;;11.80;99.90;;;;;;5080818;28;20489;-62
2023/08/31 03:38:17;;;;;;;10.43;9.33;;;11.90;99.90;;;;;;5080137;28;20463;-63
2023/08/31 03:40:54;;;;;;;10.77;9.67;;;11.90;99.90;;;;;;5080486;28;20476;-62
2023/08/31 03:43:21;;;;;;;10.40;9.17;;;11.90;99.90;;;;;;5080509;28;20453;-62
2023/08/31 03:45:49;;;;;;;11.47;8.27;;;11.90;99.90;;;;;;5080580;28;20436;-62
2023/08/31 03:48:16;;;;;;;11.60;8.57;;;11.80;99.90;;;;;;5080584;28;20507;-63
2023/08/31 03:50:43;;;;;;;10.10;8.53;;;11.80;99.90;;;;;;5079585;28;20926;-62
2023/08/31 03:53:10;;;;;;;9.67;8.67;;;11.90;99.90;;;;;;5080196;28;20555;-63
2023/08/31 03:55:38;;;;;;;10.53;8.37;;;11.90;99.90;;;;;;5080333;28;20463;-62
2023/08/31 03:58:07;;;;;;;9.63;8.70;;;11.90;99.90;;;;;;5080178;28;20461;-63
2023/08/31 04:00:34;;;;;;;13.33;9.13;;;11.90;99.90;;;;;;5080306;28;20904;-62
2023/08/31 04:03:01;;;;;;;10.40;9.30;;;11.90;99.90;;;;;;5079966;28;20555;-63
2023/08/31 04:05:28;;;;;;;10.63;9.53;;;11.90;99.90;;;;;;5080320;28;20456;-62
2023/08/31 04:07:55;;;;;;;10.80;8.93;;;11.90;99.90;;;;;;5080205;28;20556;-63
2023/08/31 04:10:23;;;;;;;15.53;9.80;;;11.90;99.90;;;;;;5080155;28;20481;-63
2023/08/31 04:12:50;;;;;;;11.53;10.33;;;11.90;99.90;;;;;;5079712;28;20560;-63
2023/08/31 04:15:19;;;;;;;12.60;11.27;;;11.90;99.90;;;;;;5079828;28;20461;-63
2023/08/31 04:17:46;;;;;;;13.73;10.90;;;11.90;99.90;;;;;;5079950;28;20464;-63
2023/08/31 04:20:14;;;;;;;13.03;11.30;;;11.90;99.90;;;;;;5080036;28;20941;-63
2023/08/31 04:22:41;;;;;;;13.87;12.20;;;11.90;99.90;;;;;;5079503;28;20464;-63
2023/08/31 04:25:09;;;;;;;15.53;13.30;;;11.90;99.90;;;;;;5079594;28;20460;-63
2023/08/31 04:27:39;;;;;;;13.60;12.17;;;11.90;99.90;;;;;;5079340;28;20463;-63
2023/08/31 04:30:08;;;;;;;17.37;14.37;;;11.90;99.90;;;;;;5079787;28;20937;-64
2023/08/31 04:32:36;;;;;;;18.23;13.97;;;11.90;99.90;;;;;;5078531;28;20457;-63
2023/08/31 04:35:05;;;;;;;16.70;14.33;;;11.90;99.90;;;;;;5079219;28;20463;-64
2023/08/31 04:37:32;;;;;;;17.90;16.10;;;11.90;99.90;;;;;;5078723;28;20962;-63
2023/08/31 04:40:00;;;;;;;17.67;15.73;;;11.90;99.90;;;;;;5079351;28;20735;-63
2023/08/31 04:42:27;;;;;;;21.33;16.30;;;11.90;99.90;;;;;;5079532;28;20460;-64
2023/08/31 04:44:54;;;;;;;16.73;15.00;;;11.90;99.90;;;;;;5079300;28;20462;-63
2023/08/31 04:47:22;;;;;;;20.60;15.87;;;11.90;99.90;;;;;;5079339;28;20876;-63
2023/08/31 04:49:50;;;;;;;15.97;14.23;;;11.90;99.90;;;;;;5079315;28;20926;-63
2023/08/31 04:52:17;;;;;;;17.50;15.67;;;12.00;99.90;;;;;;5079326;28;20457;-63
2023/08/31 04:54:44;;;;;;;17.07;15.30;;;12.00;99.90;;;;;;5078803;28;20457;-64
2023/08/31 04:57:12;;;;;;;22.70;16.83;;;12.00;99.90;;;;;;5079161;28;20461;-63
2023/08/31 04:59:39;;;;;;;17.70;15.63;;;12.00;99.90;;;;;;5079155;28;20828;-64
2023/08/31 05:02:06;;;;;;;18.47;16.47;;;12.00;99.90;;;;;;5079329;28;20548;-63
2023/08/31 05:04:33;;;;;;;18.57;16.47;;;12.00;99.90;;;;;;5078788;28;20552;-63
2023/08/31 05:07:03;;;;;;;18.93;17.13;;;11.90;99.90;;;;;;5078808;28;20559;-63
2023/08/31 05:09:34;;;;;;;21.43;17.37;;;11.90;99.90;;;;;;5079020;28;20511;-63
2023/08/31 05:12:02;;;;;;;18.87;16.87;;;12.00;99.90;;;;;;5079109;28;20964;-63
2023/08/31 05:14:29;;;;;;;17.43;14.37;;;12.00;99.90;;;;;;5079080;28;20464;-61
2023/08/31 05:16:56;;;;;;;24.27;17.27;;;12.00;99.90;;;;;;5078701;28;20489;-59
2023/08/31 05:19:24;;;;;;;19.77;16.10;;;12.00;99.90;;;;;;5078585;28;20520;-62
2023/08/31 05:21:51;;;;;;;19.73;16.80;;;12.10;99.90;;;;;;5078902;28;20820;-60
2023/08/31 05:24:20;;;;;;;20.03;17.27;;;12.00;99.90;;;;;;5078885;28;20459;-61
2023/08/31 05:26:47;;;;;;;18.40;16.53;;;12.00;99.90;;;;;;5078852;28;20462;-61
2023/08/31 05:29:14;;;;;;;22.37;17.87;;;12.00;99.90;;;;;;5081969;28;20479;-61
2023/08/31 05:31:42;;;;;;;18.77;16.77;;;12.10;99.90;;;;;;5097691;28;20503;-62
2023/08/31 05:34:10;;;;;;;19.07;17.03;;;12.10;99.90;;;;;;5097827;28;21124;-62
2023/08/31 05:36:38;;;;;;;21.10;17.50;;;12.00;99.90;;;;;;5110372;28;20583;-62
2023/08/31 05:39:05;;;;;;;19.17;17.20;;;12.10;99.90;;;;;;5118487;28;20462;-64
2023/08/31 05:41:34;;;;;;;19.67;16.83;;;12.10;99.90;;;;;;5117250;28;20550;-62
2023/08/31 05:44:01;;;;;;;18.23;16.23;;;12.10;99.90;;;;;;5115896;28;20467;-63
2023/08/31 05:46:28;;;;;;;18.10;16.20;;;12.20;99.90;;;;;;5117666;28;20462;-62
2023/08/31 05:48:55;;;;;;;20.03;15.57;;;12.20;99.90;;;;;;5117458;28;20494;-63
2023/08/31 05:51:23;;;;;;;17.40;14.87;;;12.30;99.90;;;;;;5117306;28;20498;-63
2023/08/31 05:53:50;;;;;;;16.50;14.80;;;12.30;99.90;;;;;;5117142;28;20498;-63
2023/08/31 05:56:17;;;;;;;17.90;15.93;;;12.40;99.90;;;;;;5117406;28;20458;-63
2023/08/31 05:58:47;;;;;;;17.30;14.23;;;12.50;99.90;;;;;;5117986;28;20508;-66
2023/08/31 06:01:14;;;;;;;23.83;14.90;;;12.40;99.90;;;;;;5117943;28;20462;-65
2023/08/31 06:03:41;;;;;;;15.83;14.33;;;12.50;99.90;;;;;;5118552;28;20470;-64
2023/08/31 06:06:08;;;;;;;15.40;13.97;;;12.60;99.90;;;;;;5118607;28;20818;-65
2023/08/31 06:08:35;;;;;;;15.10;13.73;;;12.50;99.90;;;;;;5118034;28;20550;-65
2023/08/31 06:11:03;;;;;;;14.97;13.33;;;12.50;99.90;;;;;;5118585;28;20498;-65
2023/08/31 06:13:30;;;;;;;14.40;12.90;;;12.50;99.90;;;;;;5118814;28;20471;-66
2023/08/31 06:15:59;;;;;;;15.00;13.50;;;12.50;99.90;;;;;;5118466;28;20549;-65
2023/08/31 06:18:26;;;;;;;15.50;14.00;;;12.50;99.90;;;;;;5118480;28;20496;-65
2023/08/31 06:20:54;;;;;;;13.03;11.70;;;12.50;99.90;;;;;;5118161;28;20736;-65
2023/08/31 06:23:21;;;;;;;14.47;13.17;;;12.70;99.90;;;;;;5118252;28;20940;-67
2023/08/31 06:25:48;;;;;;;14.67;13.17;;;12.80;99.90;;;;;;5118185;28;20462;-66
2023/08/31 06:28:16;;;;;;;13.67;12.27;;;12.80;99.90;;;;;;5118556;28;20456;-67
2023/08/31 06:30:47;;;;;;;22.30;13.17;;;12.90;99.90;;;;;;5117968;28;20786;-66
2023/08/31 06:33:17;;;;;;;15.17;13.73;;;12.80;99.90;;;;;;5117843;28;20459;-66
2023/08/31 06:35:46;;;;;;;17.40;12.33;;;12.90;99.90;;;;;;5117785;28;20948;-67
2023/08/31 06:38:13;;;;;;;14.33;13.03;;;12.90;90.20;;;;;;5117120;28;20459;-63
2023/08/31 06:40:43;;;;;;;15.20;11.83;;;12.90;1.00;;;;;;5117669;28;20825;-66
2023/08/31 06:43:10;;;;;;;13.33;11.93;;;13.00;1.00;;;;;;5117723;28;20466;-66
2023/08/31 06:45:37;;;;;;;11.87;10.83;;;13.10;1.00;;;;;;5118339;28;20547;-66
2023/08/31 06:48:05;;;;;;;14.60;12.30;;;13.20;10.20;;;;;;5101917;28;20521;-66
2023/08/31 06:50:35;;;;;;;12.57;11.30;;;13.30;1.00;;;;;;5097127;28;20749;-65
2023/08/31 06:53:03;;;;;;;12.97;11.53;;;13.20;99.90;;;;;;5097204;28;20466;-64
2023/08/31 06:55:31;;;;;;;12.20;11.10;;;13.10;99.90;;;;;;5096899;28;20466;-65
2023/08/31 06:57:59;;;;;;;11.57;10.60;;;13.20;99.90;;;;;;5097309;28;20482;-64
2023/08/31 07:00:26;;;;;;;12.47;11.17;;;13.60;1.00;;;;;;5097396;28;20874;-64
2023/08/31 07:02:53;;;;;;;12.57;11.37;;;13.70;99.90;;;;;;5096796;28;20488;-65
2023/08/31 07:05:25;;;;;;;11.63;10.53;;;14.00;99.90;;;;;;5096273;28;20461;-63
2023/08/31 07:07:55;;;;;;;10.60;9.60;;;14.10;1.00;;;;;;5096098;28;20492;-63
2023/08/31 07:10:22;;;;;;;11.67;10.57;;;14.20;99.90;;;;;;5096393;28;20461;-62
2023/08/31 07:12:50;;;;;;;13.97;11.17;;;14.20;99.90;;;;;;5096078;28;20498;-63
2023/08/31 07:15:17;;;;;;;9.63;8.43;;;14.10;77.50;;;;;;5095669;28;20460;-63
2023/08/31 07:17:44;;;;;;;10.50;9.50;;;14.20;36.40;;;;;;5095589;28;20980;-62
2023/08/31 07:20:13;;;;;;;10.57;8.60;;;14.60;99.90;;;;;;5095521;28;20462;-63
2023/08/31 07:22:41;;;;;;;13.07;9.23;;;14.80;94.60;;;;;;5095695;28;20456;-62
2023/08/31 07:25:10;;;;;;;9.07;8.10;;;15.10;1.00;;;;;;5095686;28;20467;-62
2023/08/31 07:27:37;;;;;;;8.37;7.57;;;15.10;99.90;;;;;;5095976;28;20555;-62
2023/08/31 07:30:06;;;;;;;8.63;7.80;;;15.10;99.90;;;;;;5096187;28;20558;-61
2023/08/31 07:32:33;;;;;;;7.90;7.20;;;15.10;99.90;;;;;;5096154;28;20785;-63
2023/08/31 07:35:01;;;;;;;8.93;8.07;;;15.30;99.90;;;;;;5096864;28;20864;-61
2023/08/31 07:37:28;;;;;;;8.43;7.50;;;15.40;99.90;;;;;;5093795;28;20488;-61
2023/08/31 07:39:55;;;;;;;8.80;7.90;;;15.60;99.90;;;;;;5085612;28;20471;-61
2023/08/31 07:42:23;;;;;;;7.53;6.83;;;15.70;99.90;;;;;;5077780;28;20544;-61
2023/08/31 07:44:51;;;;;;;7.97;6.70;;;15.90;12.40;;;;;;5094180;28;20460;-61
2023/08/31 07:47:18;;;;;;;7.13;6.43;;;16.00;99.90;;;;;;5097132;28;20452;-61
2023/08/31 07:49:45;;;;;;;13.23;6.90;;;16.10;1.00;;;;;;5096795;28;20488;-62
2023/08/31 07:52:12;;;;;;;8.40;6.83;;;16.00;99.90;;;;;;5097099;28;20518;-61
2023/08/31 07:54:40;;;;;;;7.23;5.73;;;16.10;99.90;;;;;;5096707;28;20496;-60
2023/08/31 07:57:07;;;;;;;7.70;6.80;;;16.30;99.90;;;;;;5095998;28;20555;-60
2023/08/31 07:59:39;;;;;;;8.20;7.40;;;16.50;99.90;;;;;;5096827;28;20905;-60
2023/08/31 08:02:06;;;;;;;6.87;6.27;;;16.50;99.90;;;;;;5096812;28;20463;-60
2023/08/31 08:04:34;;;;;;;6.93;5.43;;;16.80;99.90;;;;;;5096869;28;20792;-61
2023/08/31 08:07:01;;;;;;;6.10;5.50;;;16.90;99.90;;;;;;5098289;28;20563;-59
2023/08/31 08:09:28;;;;;;;5.60;5.00;;;17.10;99.90;;;;;;5100597;28;20555;-61
2023/08/31 08:11:55;;;;;;;6.10;4.93;;;17.00;99.90;;;;;;5100260;28;20502;-60
2023/08/31 08:14:23;;;;;;;8.40;5.60;;;17.10;1.00;;;;;;5100480;28;20496;-60
2023/08/31 08:16:52;;;;;;;5.97;4.67;;;17.20;1.00;;;;;;5100484;28;20487;-60
2023/08/31 08:19:23;;;;;;;7.90;4.97;;;17.60;1.00;;;;;;5100246;28;20518;-60
2023/08/31 08:21:50;;;;;;;7.63;4.67;;;17.80;1.00;;;;;;5100251;28;20452;-60
2023/08/31 08:24:18;;;;;;;5.10;4.30;;;18.00;1.00;;;;;;5100112;28;20559;-60
2023/08/31 08:26:45;;;;;;;8.03;4.00;;;18.10;1.00;;;;;;5100023;28;20456;-63
2023/08/31 08:29:13;;;;;;;4.53;3.87;;;18.40;99.90;;;;;;5099885;28;20559;-60
2023/08/31 08:31:40;;;;;;;5.67;3.80;;;18.60;1.00;;;;;;5100158;28;20487;-59
2023/08/31 08:34:08;;;;;;;4.80;3.77;;;18.50;99.90;;;;;;5100128;28;20808;-60
2023/08/31 08:36:35;;;;;;;4.77;3.90;;;18.30;99.90;;;;;;5112198;28;20489;-59
2023/08/31 08:39:03;;;;;;;5.47;3.60;;;18.40;99.90;;;;;;5119492;28;20876;-59
2023/08/31 08:41:32;;;;;;;4.60;3.70;;;18.40;99.90;;;;;;5120571;28;20546;-59
2023/08/31 08:44:03;;;;;;;7.23;3.93;;;18.60;99.90;;;;;;5120213;28;20911;-59
2023/08/31 08:46:34;;;;;;;7.17;4.27;;;19.10;99.90;;;;;;5120091;28;20463;-59
2023/08/31 08:49:03;;;;;;;6.30;3.40;;;19.30;99.30;;;;;;5119784;28;20456;-59
2023/08/31 08:51:33;;;;;;;5.00;3.80;;;19.60;9.90;;;;;;5119231;28;20499;-60
2023/08/31 08:54:01;;;;;;;4.87;3.67;;;19.50;99.90;;;;;;5119703;28;20512;-58
2023/08/31 08:56:28;;;;;;;5.33;3.70;;;19.50;83.70;;;;;;5119909;28;20893;-60
2023/08/31 08:58:56;;;;;;;5.37;3.70;;;19.80;99.90;;;;;;5119572;28;20551;-61
2023/08/31 09:01:25;;;;;;;4.00;3.50;;;19.80;27.90;;;;;;5119709;28;20466;-59
2023/08/31 09:03:54;;;;;;;5.70;3.33;;;19.90;99.90;;;;;;5119872;28;20821;-59
2023/08/31 09:06:21;;;;;;;3.90;3.20;;;20.30;81.10;;;;;;5120110;28;20462;-61
2023/08/31 09:08:56;;;;;;;4.40;3.27;;;20.60;1.00;;;;;;5119572;28;20771;-59
2023/08/31 09:11:26;;;;;;;3.90;3.50;;;20.70;1.00;;;;;;5119519;28;20875;-61
2023/08/31 09:13:54;;;;;;;5.00;3.63;;;20.90;1.00;;;;;;5119674;28;20744;-59
2023/08/31 09:16:31;;;;;;;7.13;3.50;;;20.70;1.00;;;;;;5119692;28;20466;-60
2023/08/31 09:19:01;;;;;;;6.77;3.40;;;20.50;1.00;;;;;;5119171;28;20558;-60
2023/08/31 09:21:36;;;;;;;3.90;3.20;;;20.20;1.00;;;;;;5119650;28;20504;-59
2023/08/31 09:24:07;;;;;;;5.80;3.13;;;20.20;1.00;;;;;;5119558;28;20879;-59
2023/08/31 09:26:39;;;;;;;3.83;3.40;;;20.70;1.00;;;;;;5119191;28;20883;-60
2023/08/31 09:29:08;;;;;;;5.93;3.80;;;20.90;1.00;;;;;;5119334;28;20459;-58
2023/08/31 09:31:35;;;;;;;4.33;2.70;;;20.90;1.00;;;;;;5118950;28;20947;-60
2023/08/31 09:34:04;;;;;;;8.00;3.30;;;20.90;1.00;;;;;;5119390;28;20966;-59
2023/08/31 09:36:32;;;;;;;4.40;3.47;;;21.50;1.00;;;;;;5118897;28;20951;-60
2023/08/31 09:39:00;;;;;;;6.87;3.10;;;21.20;1.00;;;;;;5118252;28;20900;-60
2023/08/31 09:41:31;;;;;;;5.93;3.27;;;21.10;1.00;;;;;;5118836;28;20455;-62
2023/08/31 09:44:16;;;;;;;3.63;2.70;;;21.20;1.00;;;;;;5119415;28;20459;-60
2023/08/31 09:46:47;;;;;;;3.50;2.90;;;21.60;1.00;;;;;;5119109;28;20880;-60
2023/08/31 09:49:16;;;;;;;4.03;2.70;;;22.00;1.00;;;;;;5118286;28;20459;-62
2023/08/31 09:51:46;;;;;;;5.83;3.37;;;22.40;1.00;;;;;;5118513;28;20494;-65
2023/08/31 09:54:16;;;;;;;5.30;3.17;;;21.60;1.00;;;;;;5118561;28;20487;-59
2023/08/31 09:56:48;;;;;;;3.60;2.70;;;21.70;1.00;;;;;;5117776;28;20456;-60
2023/08/31 09:59:16;;;;;;;4.00;2.93;;;22.00;1.00;;;;;;5118284;28;20749;-65
2023/08/31 10:01:46;;;;;;;4.00;3.27;;;21.20;1.00;;;;;;5118179;28;20457;-59
2023/08/31 10:04:15;;;;;;;4.00;3.60;;;20.80;1.00;;;;;;5118362;28;20864;-60
2023/08/31 10:06:45;;;;;;;4.27;3.27;;;20.90;1.00;;;;;;5118188;28;20459;-61
2023/08/31 10:09:15;;;;;;;5.03;3.07;;;21.20;1.00;;;;;;5118789;28;20459;-60
2023/08/31 10:11:44;;;;;;;4.60;2.87;;;21.10;1.00;;;;;;5118758;28;20512;-60
2023/08/31 10:14:14;;;;;;;5.13;3.60;;;21.30;1.00;;;;;;5116962;28;20935;-66
2023/08/31 10:16:45;;;;;;;4.50;2.93;;;21.80;1.00;;;;;;5116878;28;20517;-61
2023/08/31 10:19:13;;;;;;;4.73;3.23;;;22.00;1.00;;;;;;5116832;28;20520;-62
2023/08/31 10:21:44;;;;;;;5.50;2.80;;;21.90;1.00;;;;;;5117321;28;20455;-63
2023/08/31 10:24:12;;;;;;;5.40;3.30;;;21.20;1.00;;;;;;5117634;28;20513;-61
2023/08/31 10:26:40;;;;;;;4.97;3.23;;;21.60;1.00;;;;;;5117556;28;20466;-63
2023/08/31 10:29:30;;;;;;;3.63;2.73;;;21.80;1.00;;;;;;5117241;28;20491;-61
2023/08/31 10:32:04;;;;;;;4.73;2.90;;;21.20;1.00;;;;;;5117737;28;20487;-62
2023/08/31 10:34:39;;;;;;;4.10;2.53;;;20.70;1.00;;;;;;5117911;28;20464;-62
2023/08/31 10:37:23;;;;;;;2.93;2.60;;;20.80;1.00;;;;;;5117334;28;20532;-61
2023/08/31 10:40:11;;;;;;;7.77;3.00;;;20.80;1.00;;;;;;5117698;28;20455;-63
2023/08/31 10:42:47;;;;;;;4.80;3.00;;;19.90;1.00;;;;;;5109863;28;20812;-65
2023/08/31 10:45:21;;;;;;;7.60;3.63;;;19.60;99.90;;;;;;5109360;28;20467;-63
2023/08/31 10:47:53;;;;;;;3.07;2.67;;;19.60;99.90;;;;;;5114507;28;20475;-63
2023/08/31 10:50:21;;;;;;;9.13;2.90;;;19.90;99.90;;;;;;5116634;28;20500;-66
2023/08/31 10:52:49;;;;;;;4.07;3.10;;;20.70;99.90;;;;;;5114381;28;20507;-63
2023/08/31 10:55:18;;;;;;;3.57;2.77;;;21.40;99.90;;;;;;5115671;28;20524;-62
2023/08/31 10:57:46;;;;;;;3.30;2.67;;;21.30;1.00;;;;;;5116316;28;21135;-63
2023/08/31 11:00:14;;;;;;;7.03;4.27;;;21.10;1.00;;;;;;5114170;28;20750;-64
2023/08/31 11:02:47;;;;;;;5.17;3.00;;;20.40;1.00;;;;;;5113415;28;20463;-63
2023/08/31 11:05:17;;;;;;;3.77;3.27;;;19.90;99.90;;;;;;5109915;28;20556;-65
2023/08/31 11:07:46;;;;;;;7.43;2.93;;;19.90;99.90;;;;;;5108880;28;20913;-62
2023/08/31 11:10:16;;;;;;;4.70;3.37;;;19.70;99.90;;;;;;5111566;28;20528;-61
2023/08/31 11:12:46;;;;;;;4.90;3.50;;;20.20;1.00;;;;;;5113803;28;20514;-65
2023/08/31 11:15:14;;;;;;;6.67;3.10;;;20.90;1.00;;;;;;5111597;28;20467;-62
2023/08/31 11:17:42;;;;;;;6.17;4.17;;;21.70;1.00;;;;;;5104724;28;20474;-62
2023/08/31 11:20:16;;;;;;;4.50;3.70;;;21.50;1.00;;;;;;5105432;28;20441;-64
2023/08/31 11:22:49;;;;;;;5.90;4.17;;;20.90;99.90;;;;;;5116483;28;20506;-64
2023/08/31 11:25:19;;;;;;;7.53;3.67;;;20.00;99.90;;;;;;5115229;28;20462;-65
2023/08/31 11:27:56;;;;;;;4.53;3.70;;;19.50;99.90;;;;;;5113570;28;20503;-63
2023/08/31 11:30:23;;;;;;;5.17;4.10;;;19.10;1.00;;;;;;5117453;28;20848;-60
2023/08/31 11:32:53;;;;;;;5.67;3.80;;;18.60;55.80;;;;;;5117226;28;20951;-59
2023/08/31 11:35:25;;;;;;;7.47;4.00;;;18.10;28.80;;;;;;5115921;28;20478;-59
2023/08/31 11:37:56;;;;;;;6.03;4.40;;;17.90;99.90;;;;;;5116345;28;20526;-59
2023/08/31 11:40:25;;;;;;;5.90;3.60;;;17.80;99.90;;;;;;5116279;28;20475;-61
2023/08/31 11:42:53;;;;;;;4.83;3.20;;;17.80;99.90;;;;;;5121438;28;20519;-60
2023/08/31 11:45:23;;;;;;;4.43;3.80;;;18.50;1.00;;;;;;5117299;28;20874;-58
2023/08/31 11:47:51;;;;;;;5.97;3.30;;;19.50;1.00;;;;;;5117088;28;20507;-57
2023/08/31 11:50:22;;;;;;;5.00;3.47;;;20.30;1.00;;;;;;5116448;28;20463;-60
2023/08/31 11:52:50;;;;;;;6.57;4.33;;;20.80;99.90;;;;;;5119695;28;20486;-59
2023/08/31 11:55:20;;;;;;;7.60;3.87;;;21.00;99.90;;;;;;5119820;28;20563;-58
2023/08/31 11:57:54;;;;;;;6.37;3.80;;;21.00;72.40;;;;;;5120030;28;20487;-59
2023/08/31 12:00:24;;;;;;;5.33;3.40;;;21.40;1.00;;;;;;5112804;28;20490;-58
2023/08/31 12:02:58;;;;;;;5.60;3.47;;;21.50;1.00;;;;;;5109245;28;20738;-59
2023/08/31 12:05:27;;;;;;;4.80;2.70;;;21.20;99.90;;;;;;5115277;28;20473;-58
2023/08/31 12:07:56;;;;;;;6.73;3.43;;;21.20;99.90;;;;;;5114873;28;20455;-59
2023/08/31 12:10:27;;;;;;;7.27;4.40;;;21.70;99.90;;;;;;5110169;28;20460;-62
2023/08/31 12:12:56;;;;;;;4.17;3.30;;;21.70;99.90;;;;;;5118861;28;21006;-59
2023/08/31 12:15:23;;;;;;;4.47;3.03;;;21.60;99.90;;;;;;5118083;28;20889;-60
2023/08/31 12:17:54;;;;;;;4.80;3.10;;;22.10;99.90;;;;;;5114179;28;20495;-58
2023/08/31 12:20:27;;;;;;;4.87;3.40;;;22.50;99.90;;;;;;5110445;28;20822;-59
2023/08/31 12:22:56;;;;;;;3.47;3.17;;;22.80;99.90;;;;;;5114474;28;20482;-62
2023/08/31 12:25:26;;;;;;;3.80;2.50;;;22.40;99.90;;;;;;5115285;28;20458;-60
2023/08/31 12:27:55;;;;;;;5.17;3.43;;;21.20;99.90;;;;;;5114101;28;20493;-59
2023/08/31 12:30:25;;;;;;;4.20;3.33;;;20.70;99.90;;;;;;5109728;28;20460;-61
2023/08/31 12:32:53;;;;;;;4.13;3.30;;;20.00;99.90;;;;;;5100570;28;20542;-59
2023/08/31 12:35:22;;;;;;;6.70;3.27;;;19.40;99.90;;;;;;5114030;28;20467;-61
2023/08/31 12:37:53;;;;;;;6.77;3.47;;;19.20;99.90;;;;;;5091287;28;20464;-60
2023/08/31 12:40:21;;;;;;;4.27;3.53;;;18.80;99.90;;;;;;5102063;28;20452;-60
2023/08/31 12:42:49;;;;;;;6.03;3.50;;;18.40;1.00;;;;;;5085767;28;20556;-62
2023/08/31 12:45:16;;;;;;;4.90;3.60;;;18.20;1.00;;;;;;5109690;28;20508;-60
2023/08/31 12:47:44;;;;;;;4.03;3.00;;;17.70;30.20;;;;;;5098765;28;20495;-61
2023/08/31 12:50:12;;;;;;;7.67;3.30;;;17.20;1.00;;;;;;5099170;28;20484;-61
2023/08/31 12:52:45;;;;;;;4.40;2.93;;;16.80;1.00;;;;;;5098634;28;20535;-58